sensor_id;sensor_type;location;lat;lon;timestamp;pressure;altitude;pressure_sealevel;temperature;humidity
63285;BME280;49409;55.708;37.522;2023-02-15T00:00:39;99667.38;;;3.13;50.89
63285;BME280;49409;55.708;37.522;2023-02-15T00:03:04;99667.94;;;3.22;50.78
63285;BME280;49409;55.708;37.522;2023-02-15T00:05:30;99666.19;;;3.33;50.11
63285;BME280;49409;55.708;37.522;2023-02-15T00:07:55;99669.06;;;3.41;50.42
63285;BME280;49409;55.708;37.522;2023-02-15T00:10:21;99662.72;;;3.56;50.30
63285;BME280;49409;55.708;37.522;2023-02-15T00:12:46;99679.78;;;3.33;50.04
63285;BME280;49409;55.708;37.522;2023-02-15T00:15:11;99675.81;;;3.08;50.93
63285;BME280;49409;55.708;37.522;2023-02-15T00:17:38;99676.97;;;3.07;51.10
63285;BME280;49409;55.708;37.522;2023-02-15T00:20:03;99670.44;;;3.11;51.31
63285;BME280;49409;55.708;37.522;2023-02-15T00:22:28;99669.94;;;3.25;50.21
63285;BME280;49409;55.708;37.522;2023-02-15T00:24:54;99664.72;;;3.16;51.03
63285;BME280;49409;55.708;37.522;2023-02-15T00:27:19;99661.66;;;3.18;51.39
63285;BME280;49409;55.708;37.522;2023-02-15T00:29:46;99675.38;;;3.25;50.89
63285;BME280;49409;55.708;37.522;2023-02-15T00:32:11;99679.34;;;3.08;51.05
63285;BME280;49409;55.708;37.522;2023-02-15T00:34:36;99672.66;;;3.25;50.60
63285;BME280;49409;55.708;37.522;2023-02-15T00:37:02;99673.41;;;3.03;50.68
63285;BME280;49409;55.708;37.522;2023-02-15T00:39:27;99668.72;;;3.23;51.29
63285;BME280;49409;55.708;37.522;2023-02-15T00:41:53;99677.97;;;3.18;51.27
63285;BME280;49409;55.708;37.522;2023-02-15T00:44:19;99678.53;;;3.27;50.17
63285;BME280;49409;55.708;37.522;2023-02-15T00:46:44;99682.09;;;3.31;50.50
63285;BME280;49409;55.708;37.522;2023-02-15T00:49:10;99678.09;;;3.25;51.34
63285;BME280;49409;55.708;37.522;2023-02-15T00:51:35;99687.41;;;2.85;51.51
63285;BME280;49409;55.708;37.522;2023-02-15T00:54:00;99682.25;;;3.00;52.07
63285;BME280;49409;55.708;37.522;2023-02-15T00:56:26;99691.28;;;3.04;52.59
63285;BME280;49409;55.708;37.522;2023-02-15T00:58:53;99690.47;;;3.23;51.14
63285;BME280;49409;55.708;37.522;2023-02-15T01:01:19;99681.06;;;3.16;50.70
63285;BME280;49409;55.708;37.522;2023-02-15T01:03:45;99695.00;;;2.95;51.12
63285;BME280;49409;55.708;37.522;2023-02-15T01:06:11;99683.84;;;3.20;50.86
63285;BME280;49409;55.708;37.522;2023-02-15T01:08:37;99688.75;;;3.34;51.21
63285;BME280;49409;55.708;37.522;2023-02-15T01:11:09;99682.50;;;3.33;50.68
63285;BME280;49409;55.708;37.522;2023-02-15T01:13:35;99693.56;;;3.21;50.79
63285;BME280;49409;55.708;37.522;2023-02-15T01:16:01;99697.13;;;3.06;51.13
63285;BME280;49409;55.708;37.522;2023-02-15T01:18:27;99695.41;;;2.97;51.21
63285;BME280;49409;55.708;37.522;2023-02-15T01:20:52;99690.69;;;3.14;50.67
63285;BME280;49409;55.708;37.522;2023-02-15T01:23:17;99698.00;;;3.10;50.75
63285;BME280;49409;55.708;37.522;2023-02-15T01:25:43;99706.56;;;3.12;50.45
63285;BME280;49409;55.708;37.522;2023-02-15T01:28:08;99698.22;;;3.21;50.34
63285;BME280;49409;55.708;37.522;2023-02-15T01:30:34;99703.56;;;3.17;50.71
63285;BME280;49409;55.708;37.522;2023-02-15T01:32:59;99699.00;;;3.21;50.58
63285;BME280;49409;55.708;37.522;2023-02-15T01:35:26;99692.19;;;3.11;50.75
63285;BME280;49409;55.708;37.522;2023-02-15T01:37:51;99706.38;;;3.21;50.13
63285;BME280;49409;55.708;37.522;2023-02-15T01:40:17;99710.03;;;3.28;49.70
63285;BME280;49409;55.708;37.522;2023-02-15T01:42:43;99701.44;;;3.26;49.71
63285;BME280;49409;55.708;37.522;2023-02-15T01:45:30;99698.88;;;2.94;50.85
63285;BME280;49409;55.708;37.522;2023-02-15T01:48:17;99702.88;;;3.01;49.92
63285;BME280;49409;55.708;37.522;2023-02-15T01:50:50;99705.78;;;2.92;49.84
63285;BME280;49409;55.708;37.522;2023-02-15T01:53:25;99715.66;;;3.00;50.67
63285;BME280;49409;55.708;37.522;2023-02-15T01:55:54;99716.09;;;2.83;50.58
63285;BME280;49409;55.708;37.522;2023-02-15T01:58:21;99712.31;;;2.87;51.10
63285;BME280;49409;55.708;37.522;2023-02-15T02:00:47;99720.47;;;3.07;50.46
63285;BME280;49409;55.708;37.522;2023-02-15T02:03:13;99716.91;;;3.03;50.19
63285;BME280;49409;55.708;37.522;2023-02-15T02:05:38;99717.16;;;2.97;50.47
63285;BME280;49409;55.708;37.522;2023-02-15T02:08:04;99710.22;;;3.00;49.87
63285;BME280;49409;55.708;37.522;2023-02-15T02:10:30;99718.75;;;2.98;49.43
63285;BME280;49409;55.708;37.522;2023-02-15T02:12:57;99718.53;;;3.07;49.50
63285;BME280;49409;55.708;37.522;2023-02-15T02:15:27;99716.66;;;3.11;49.96
63285;BME280;49409;55.708;37.522;2023-02-15T02:22:57;99719.03;;;3.13;49.44
63285;BME280;49409;55.708;37.522;2023-02-15T02:38:27;99727.41;;;3.04;48.53
63285;BME280;49409;55.708;37.522;2023-02-15T02:43:38;99728.59;;;2.87;48.62
63285;BME280;49409;55.708;37.522;2023-02-15T02:46:07;99731.75;;;2.89;48.89
63285;BME280;49409;55.708;37.522;2023-02-15T02:48:35;99734.97;;;2.95;48.73
63285;BME280;49409;55.708;37.522;2023-02-15T02:51:01;99740.59;;;2.67;48.19
63285;BME280;49409;55.708;37.522;2023-02-15T02:53:26;99744.09;;;2.67;47.99
63285;BME280;49409;55.708;37.522;2023-02-15T02:55:59;99734.81;;;2.88;48.68
63285;BME280;49409;55.708;37.522;2023-02-15T02:58:31;99747.75;;;2.75;47.82
63285;BME280;49409;55.708;37.522;2023-02-15T03:01:03;99747.41;;;2.61;48.33
63285;BME280;49409;55.708;37.522;2023-02-15T03:06:04;99733.41;;;2.58;48.75
63285;BME280;49409;55.708;37.522;2023-02-15T03:08:36;99740.91;;;2.81;48.29
63285;BME280;49409;55.708;37.522;2023-02-15T03:11:03;99745.34;;;2.89;48.03
63285;BME280;49409;55.708;37.522;2023-02-15T03:13:29;99750.47;;;2.75;48.06
63285;BME280;49409;55.708;37.522;2023-02-15T03:15:54;99751.59;;;2.74;48.48
63285;BME280;49409;55.708;37.522;2023-02-15T03:18:42;99756.44;;;2.81;48.35
63285;BME280;49409;55.708;37.522;2023-02-15T03:21:08;99751.38;;;2.63;48.49
63285;BME280;49409;55.708;37.522;2023-02-15T03:23:34;99751.34;;;2.79;48.47
63285;BME280;49409;55.708;37.522;2023-02-15T03:26:05;99754.19;;;2.86;48.33
63285;BME280;49409;55.708;37.522;2023-02-15T03:28:33;99755.47;;;2.73;47.68
63285;BME280;49409;55.708;37.522;2023-02-15T03:31:01;99757.47;;;2.76;47.43
63285;BME280;49409;55.708;37.522;2023-02-15T03:33:28;99755.19;;;2.78;47.75
63285;BME280;49409;55.708;37.522;2023-02-15T03:38:29;99764.00;;;2.55;48.19
63285;BME280;49409;55.708;37.522;2023-02-15T03:40:58;99751.28;;;2.60;48.43
63285;BME280;49409;55.708;37.522;2023-02-15T03:46:12;99756.78;;;2.79;48.67
63285;BME280;49409;55.708;37.522;2023-02-15T03:48:43;99751.94;;;2.53;48.65
63285;BME280;49409;55.708;37.522;2023-02-15T03:51:12;99754.28;;;2.54;48.74
63285;BME280;49409;55.708;37.522;2023-02-15T03:53:59;99758.28;;;2.61;48.62
63285;BME280;49409;55.708;37.522;2023-02-15T03:56:25;99771.19;;;2.48;48.79
63285;BME280;49409;55.708;37.522;2023-02-15T03:58:51;99767.00;;;2.50;48.56
63285;BME280;49409;55.708;37.522;2023-02-15T04:01:37;99767.09;;;2.38;48.46
63285;BME280;49409;55.708;37.522;2023-02-15T04:04:22;99769.72;;;2.18;48.73
63285;BME280;49409;55.708;37.522;2023-02-15T04:06:48;99770.50;;;2.19;48.25
63285;BME280;49409;55.708;37.522;2023-02-15T04:09:14;99775.00;;;2.11;48.89
63285;BME280;49409;55.708;37.522;2023-02-15T04:11:58;99770.06;;;2.33;48.71
63285;BME280;49409;55.708;37.522;2023-02-15T04:14:23;99771.38;;;2.23;48.03
63285;BME280;49409;55.708;37.522;2023-02-15T04:17:07;99772.00;;;2.16;48.34
63285;BME280;49409;55.708;37.522;2023-02-15T04:19:33;99779.38;;;2.32;48.36
63285;BME280;49409;55.708;37.522;2023-02-15T04:22:17;99770.59;;;2.23;48.32
63285;BME280;49409;55.708;37.522;2023-02-15T04:25:01;99765.59;;;2.41;48.11
63285;BME280;49409;55.708;37.522;2023-02-15T04:27:39;99767.19;;;2.26;47.75
63285;BME280;49409;55.708;37.522;2023-02-15T04:30:05;99760.34;;;2.48;47.76
63285;BME280;49409;55.708;37.522;2023-02-15T04:32:31;99767.19;;;2.26;47.47
63285;BME280;49409;55.708;37.522;2023-02-15T04:34:56;99760.25;;;2.44;47.67
63285;BME280;49409;55.708;37.522;2023-02-15T04:37:22;99771.28;;;2.51;47.38
63285;BME280;49409;55.708;37.522;2023-02-15T04:39:47;99777.88;;;2.34;47.12
63285;BME280;49409;55.708;37.522;2023-02-15T04:42:12;99779.00;;;2.49;46.86
63285;BME280;49409;55.708;37.522;2023-02-15T04:44:38;99779.81;;;2.34;47.30
63285;BME280;49409;55.708;37.522;2023-02-15T04:47:03;99786.88;;;2.23;46.71
63285;BME280;49409;55.708;37.522;2023-02-15T04:49:28;99787.22;;;2.21;47.01
63285;BME280;49409;55.708;37.522;2023-02-15T04:51:54;99773.75;;;2.25;47.20
63285;BME280;49409;55.708;37.522;2023-02-15T04:54:19;99781.34;;;2.03;47.56
63285;BME280;49409;55.708;37.522;2023-02-15T04:56:44;99776.19;;;1.98;47.34
63285;BME280;49409;55.708;37.522;2023-02-15T04:59:10;99769.09;;;1.93;47.32
63285;BME280;49409;55.708;37.522;2023-02-15T05:01:36;99778.16;;;2.13;47.19
63285;BME280;49409;55.708;37.522;2023-02-15T05:04:01;99778.59;;;2.15;46.92
63285;BME280;49409;55.708;37.522;2023-02-15T05:06:26;99777.44;;;2.16;47.33
63285;BME280;49409;55.708;37.522;2023-02-15T05:08:52;99785.91;;;2.15;47.14
63285;BME280;49409;55.708;37.522;2023-02-15T05:11:17;99787.56;;;1.88;46.79
63285;BME280;49409;55.708;37.522;2023-02-15T05:13:42;99787.94;;;2.02;47.01
63285;BME280;49409;55.708;37.522;2023-02-15T05:16:07;99795.72;;;1.88;47.66
63285;BME280;49409;55.708;37.522;2023-02-15T05:18:33;99806.59;;;1.75;47.65
63285;BME280;49409;55.708;37.522;2023-02-15T05:20:58;99799.56;;;1.87;47.76
63285;BME280;49409;55.708;37.522;2023-02-15T05:23:24;99797.78;;;1.78;47.54
63285;BME280;49409;55.708;37.522;2023-02-15T05:25:49;99809.78;;;1.93;47.54
63285;BME280;49409;55.708;37.522;2023-02-15T05:28:34;99806.50;;;2.00;47.12
63285;BME280;49409;55.708;37.522;2023-02-15T05:33:28;99800.09;;;1.92;46.87
63285;BME280;49409;55.708;37.522;2023-02-15T05:35:53;99809.34;;;1.91;46.50
63285;BME280;49409;55.708;37.522;2023-02-15T05:38:18;99809.13;;;1.96;46.76
63285;BME280;49409;55.708;37.522;2023-02-15T05:40:44;99802.13;;;2.11;46.48
63285;BME280;49409;55.708;37.522;2023-02-15T05:43:09;99810.34;;;1.99;46.37
63285;BME280;49409;55.708;37.522;2023-02-15T05:45:34;99819.31;;;1.87;47.24
63285;BME280;49409;55.708;37.522;2023-02-15T05:48:00;99826.66;;;1.71;46.42
63285;BME280;49409;55.708;37.522;2023-02-15T05:50:25;99820.13;;;1.88;47.19
63285;BME280;49409;55.708;37.522;2023-02-15T05:52:51;99817.59;;;1.95;46.88
63285;BME280;49409;55.708;37.522;2023-02-15T05:55:16;99815.31;;;1.97;46.63
63285;BME280;49409;55.708;37.522;2023-02-15T05:57:42;99830.59;;;2.02;46.53
63285;BME280;49409;55.708;37.522;2023-02-15T06:00:07;99824.84;;;1.91;46.64
63285;BME280;49409;55.708;37.522;2023-02-15T06:02:35;99807.88;;;1.94;46.52
63285;BME280;49409;55.708;37.522;2023-02-15T06:05:01;99827.56;;;1.91;45.99
63285;BME280;49409;55.708;37.522;2023-02-15T06:07:26;99822.00;;;2.00;46.31
63285;BME280;49409;55.708;37.522;2023-02-15T06:09:52;99816.63;;;2.03;46.67
63285;BME280;49409;55.708;37.522;2023-02-15T06:12:17;99816.03;;;1.94;46.52
63285;BME280;49409;55.708;37.522;2023-02-15T06:14:42;99824.28;;;1.69;47.02
63285;BME280;49409;55.708;37.522;2023-02-15T06:17:08;99837.00;;;1.81;46.88
63285;BME280;49409;55.708;37.522;2023-02-15T06:19:33;99833.25;;;1.86;46.87
63285;BME280;49409;55.708;37.522;2023-02-15T06:21:58;99838.75;;;1.89;47.49
63285;BME280;49409;55.708;37.522;2023-02-15T06:24:24;99837.59;;;1.74;47.15
63285;BME280;49409;55.708;37.522;2023-02-15T06:26:49;99848.63;;;1.82;46.85
63285;BME280;49409;55.708;37.522;2023-02-15T06:29:14;99851.41;;;1.69;46.96
63285;BME280;49409;55.708;37.522;2023-02-15T06:31:40;99843.91;;;1.78;47.02
63285;BME280;49409;55.708;37.522;2023-02-15T06:34:05;99838.72;;;2.02;46.38
63285;BME280;49409;55.708;37.522;2023-02-15T06:36:31;99844.50;;;2.00;46.09
63285;BME280;49409;55.708;37.522;2023-02-15T06:38:56;99848.00;;;2.16;46.29
63285;BME280;49409;55.708;37.522;2023-02-15T06:41:22;99840.06;;;2.24;46.25
63285;BME280;49409;55.708;37.522;2023-02-15T06:43:47;99844.66;;;2.07;45.78
63285;BME280;49409;55.708;37.522;2023-02-15T06:46:13;99849.78;;;2.25;46.06
63285;BME280;49409;55.708;37.522;2023-02-15T06:48:38;99863.88;;;2.14;46.46
63285;BME280;49409;55.708;37.522;2023-02-15T06:51:04;99852.19;;;1.98;46.60
63285;BME280;49409;55.708;37.522;2023-02-15T06:53:29;99859.66;;;2.17;46.39
63285;BME280;49409;55.708;37.522;2023-02-15T06:56:01;99847.78;;;2.22;46.25
63285;BME280;49409;55.708;37.522;2023-02-15T06:58:28;99845.94;;;2.26;45.63
63285;BME280;49409;55.708;37.522;2023-02-15T07:00:53;99847.69;;;2.34;46.14
63285;BME280;49409;55.708;37.522;2023-02-15T07:03:18;99861.59;;;2.32;45.53
63285;BME280;49409;55.708;37.522;2023-02-15T07:05:44;99854.78;;;2.38;45.73
63285;BME280;49409;55.708;37.522;2023-02-15T07:08:10;99855.88;;;2.06;46.24
63285;BME280;49409;55.708;37.522;2023-02-15T07:10:36;99852.75;;;2.20;46.20
63285;BME280;49409;55.708;37.522;2023-02-15T07:13:01;99854.50;;;2.28;45.43
63285;BME280;49409;55.708;37.522;2023-02-15T07:15:26;99852.88;;;2.39;45.64
63285;BME280;49409;55.708;37.522;2023-02-15T07:17:52;99849.00;;;2.40;46.05
63285;BME280;49409;55.708;37.522;2023-02-15T07:20:18;99855.06;;;2.33;45.59
63285;BME280;49409;55.708;37.522;2023-02-15T07:22:44;99854.50;;;2.28;46.18
63285;BME280;49409;55.708;37.522;2023-02-15T07:25:11;99853.31;;;2.41;45.96
63285;BME280;49409;55.708;37.522;2023-02-15T07:27:37;99846.63;;;2.54;46.31
63285;BME280;49409;55.708;37.522;2023-02-15T07:30:02;99850.75;;;2.48;46.42
63285;BME280;49409;55.708;37.522;2023-02-15T07:32:28;99859.00;;;2.36;47.19
63285;BME280;49409;55.708;37.522;2023-02-15T07:34:54;99860.22;;;2.38;47.65
63285;BME280;49409;55.708;37.522;2023-02-15T07:37:20;99862.50;;;2.52;46.90
63285;BME280;49409;55.708;37.522;2023-02-15T07:39:45;99863.81;;;2.58;47.20
63285;BME280;49409;55.708;37.522;2023-02-15T07:42:10;99861.28;;;2.66;46.93
63285;BME280;49409;55.708;37.522;2023-02-15T07:44:36;99866.28;;;2.64;47.29
63285;BME280;49409;55.708;37.522;2023-02-15T07:47:01;99868.66;;;2.49;47.79
63285;BME280;49409;55.708;37.522;2023-02-15T07:49:27;99866.81;;;2.53;47.64
63285;BME280;49409;55.708;37.522;2023-02-15T07:51:52;99869.06;;;2.51;47.27
63285;BME280;49409;55.708;37.522;2023-02-15T07:54:18;99868.19;;;2.47;47.62
63285;BME280;49409;55.708;37.522;2023-02-15T07:56:43;99869.75;;;2.48;47.85
63285;BME280;49409;55.708;37.522;2023-02-15T07:59:09;99866.97;;;2.61;47.54
63285;BME280;49409;55.708;37.522;2023-02-15T08:01:35;99872.75;;;2.43;47.32
63285;BME280;49409;55.708;37.522;2023-02-15T08:04:00;99878.00;;;2.36;46.99
63285;BME280;49409;55.708;37.522;2023-02-15T08:06:27;99867.84;;;2.65;46.81
63285;BME280;49409;55.708;37.522;2023-02-15T08:08:52;99868.19;;;2.79;46.80
63285;BME280;49409;55.708;37.522;2023-02-15T08:11:19;99895.53;;;2.54;46.21
63285;BME280;49409;55.708;37.522;2023-02-15T08:16:28;99880.97;;;2.47;46.00
63285;BME280;49409;55.708;37.522;2023-02-15T08:18:53;99880.53;;;2.61;45.84
63285;BME280;49409;55.708;37.522;2023-02-15T08:21:19;99892.22;;;2.45;45.21
63285;BME280;49409;55.708;37.522;2023-02-15T08:23:45;99885.28;;;2.64;45.86
63285;BME280;49409;55.708;37.522;2023-02-15T08:26:10;99888.97;;;2.55;45.86
63285;BME280;49409;55.708;37.522;2023-02-15T08:28:35;99886.50;;;2.34;46.10
63285;BME280;49409;55.708;37.522;2023-02-15T08:33:51;99898.25;;;2.54;46.04
63285;BME280;49409;55.708;37.522;2023-02-15T08:36:18;99909.31;;;2.62;45.92
63285;BME280;49409;55.708;37.522;2023-02-15T08:38:44;99914.47;;;2.67;45.04
63285;BME280;49409;55.708;37.522;2023-02-15T08:41:16;99909.56;;;2.88;44.77
63285;BME280;49409;55.708;37.522;2023-02-15T08:43:42;99903.09;;;2.77;45.49
63285;BME280;49409;55.708;37.522;2023-02-15T08:46:09;99911.69;;;2.79;43.78
63285;BME280;49409;55.708;37.522;2023-02-15T08:48:34;99923.75;;;2.66;44.78
63285;BME280;49409;55.708;37.522;2023-02-15T08:51:03;99899.13;;;2.58;45.31
63285;BME280;49409;55.708;37.522;2023-02-15T08:53:29;99914.09;;;2.52;45.59
63285;BME280;49409;55.708;37.522;2023-02-15T08:55:55;99911.06;;;2.86;45.36
63285;BME280;49409;55.708;37.522;2023-02-15T08:58:21;99912.56;;;2.83;44.88
63285;BME280;49409;55.708;37.522;2023-02-15T09:00:46;99913.44;;;2.87;44.89
63285;BME280;49409;55.708;37.522;2023-02-15T09:03:11;99909.13;;;3.02;44.75
63285;BME280;49409;55.708;37.522;2023-02-15T09:05:36;99911.75;;;3.14;44.48
63285;BME280;49409;55.708;37.522;2023-02-15T09:08:02;99912.53;;;3.15;44.00
63285;BME280;49409;55.708;37.522;2023-02-15T09:10:27;99914.97;;;3.20;44.09
63285;BME280;49409;55.708;37.522;2023-02-15T09:12:52;99916.00;;;3.31;44.19
63285;BME280;49409;55.708;37.522;2023-02-15T09:15:18;99900.72;;;3.43;44.18
63285;BME280;49409;55.708;37.522;2023-02-15T09:17:43;99908.59;;;3.48;43.89
63285;BME280;49409;55.708;37.522;2023-02-15T09:20:09;99905.28;;;3.38;44.19
63285;BME280;49409;55.708;37.522;2023-02-15T09:22:34;99907.00;;;3.47;43.53
63285;BME280;49409;55.708;37.522;2023-02-15T09:24:59;99909.56;;;3.40;44.25
63285;BME280;49409;55.708;37.522;2023-02-15T09:27:25;99913.50;;;3.07;44.12
63285;BME280;49409;55.708;37.522;2023-02-15T09:29:50;99913.38;;;3.19;43.92
63285;BME280;49409;55.708;37.522;2023-02-15T09:32:15;99915.69;;;3.17;43.83
63285;BME280;49409;55.708;37.522;2023-02-15T09:34:42;99920.25;;;3.13;43.31
63285;BME280;49409;55.708;37.522;2023-02-15T09:37:07;99920.25;;;3.13;43.92
63285;BME280;49409;55.708;37.522;2023-02-15T09:39:33;99921.91;;;3.17;44.58
63285;BME280;49409;55.708;37.522;2023-02-15T10:07:27;99943.03;;;3.24;42.99
63285;BME280;49409;55.708;37.522;2023-02-15T10:10:00;99944.00;;;3.32;43.89
63285;BME280;49409;55.708;37.522;2023-02-15T10:12:42;99936.63;;;3.32;43.21
63285;BME280;49409;55.708;37.522;2023-02-15T10:25:28;99938.69;;;3.74;43.28
63285;BME280;49409;55.708;37.522;2023-02-15T10:27:59;99941.00;;;3.72;42.81
63285;BME280;49409;55.708;37.522;2023-02-15T10:30:31;99945.78;;;3.60;43.33
63285;BME280;49409;55.708;37.522;2023-02-15T10:33:00;99949.06;;;3.69;43.29
63285;BME280;49409;55.708;37.522;2023-02-15T10:35:38;99963.06;;;3.51;42.97
63285;BME280;49409;55.708;37.522;2023-02-15T10:38:19;99965.22;;;3.42;44.25
63285;BME280;49409;55.708;37.522;2023-02-15T10:45:58;99979.97;;;3.25;43.25
63285;BME280;49409;55.708;37.522;2023-02-15T10:53:53;99982.97;;;3.04;44.75
63285;BME280;49409;55.708;37.522;2023-02-15T11:06:53;99984.06;;;3.51;43.77
63285;BME280;49409;55.708;37.522;2023-02-15T11:09:21;100000.16;;;3.40;43.31
63285;BME280;49409;55.708;37.522;2023-02-15T11:11:51;100002.66;;;3.49;43.09
63285;BME280;49409;55.708;37.522;2023-02-15T11:17:11;100001.16;;;3.51;43.19
63285;BME280;49409;55.708;37.522;2023-02-15T11:19:51;99991.78;;;3.49;43.75
63285;BME280;49409;55.708;37.522;2023-02-15T11:22:19;99996.91;;;3.34;44.05
63285;BME280;49409;55.708;37.522;2023-02-15T11:24:45;100006.63;;;3.35;44.02
63285;BME280;49409;55.708;37.522;2023-02-15T11:35:18;100006.81;;;3.43;44.81
63285;BME280;49409;55.708;37.522;2023-02-15T11:40:27;100011.97;;;3.48;43.91
63285;BME280;49409;55.708;37.522;2023-02-15T11:42:55;100011.56;;;3.46;44.18
63285;BME280;49409;55.708;37.522;2023-02-15T11:47:46;100012.69;;;3.45;43.79
63285;BME280;49409;55.708;37.522;2023-02-15T11:50:15;100014.28;;;3.46;44.66
63285;BME280;49409;55.708;37.522;2023-02-15T11:52:41;100016.19;;;3.45;43.95
63285;BME280;49409;55.708;37.522;2023-02-15T11:55:11;100018.47;;;3.43;44.22
63285;BME280;49409;55.708;37.522;2023-02-15T11:57:39;100022.88;;;3.48;44.76
63285;BME280;49409;55.708;37.522;2023-02-15T12:03:22;100022.59;;;3.37;44.62
63285;BME280;49409;55.708;37.522;2023-02-15T12:06:01;100029.53;;;3.34;45.71
63285;BME280;49409;55.708;37.522;2023-02-15T12:08:31;100031.47;;;3.34;44.92
63285;BME280;49409;55.708;37.522;2023-02-15T12:11:19;100037.41;;;3.40;45.21
63285;BME280;49409;55.708;37.522;2023-02-15T12:13:58;100040.50;;;3.38;45.29
63285;BME280;49409;55.708;37.522;2023-02-15T12:16:24;100042.34;;;3.50;44.43
63285;BME280;49409;55.708;37.522;2023-02-15T12:18:50;100035.66;;;3.31;44.89
63285;BME280;49409;55.708;37.522;2023-02-15T12:21:25;100041.63;;;3.21;45.29
63285;BME280;49409;55.708;37.522;2023-02-15T12:23:51;100047.41;;;3.35;45.64
63285;BME280;49409;55.708;37.522;2023-02-15T12:26:26;100056.84;;;3.38;44.72
63285;BME280;49409;55.708;37.522;2023-02-15T12:28:52;100055.88;;;3.30;44.98
63285;BME280;49409;55.708;37.522;2023-02-15T12:31:23;100053.94;;;3.31;45.12
63285;BME280;49409;55.708;37.522;2023-02-15T12:33:50;100060.59;;;3.33;45.59
63285;BME280;49409;55.708;37.522;2023-02-15T12:36:22;100055.88;;;3.30;44.72
63285;BME280;49409;55.708;37.522;2023-02-15T12:39:34;100061.13;;;3.23;44.52
63285;BME280;49409;55.708;37.522;2023-02-15T12:41:36;100059.34;;;3.15;45.12
63285;BME280;49409;55.708;37.522;2023-02-15T12:46:29;100077.28;;;3.16;45.08
63285;BME280;49409;55.708;37.522;2023-02-15T12:49:13;100079.53;;;3.14;45.10
63285;BME280;49409;55.708;37.522;2023-02-15T12:51:43;100090.19;;;2.91;44.51
63285;BME280;49409;55.708;37.522;2023-02-15T12:54:43;100076.63;;;3.07;45.28
63285;BME280;49409;55.708;37.522;2023-02-15T12:59:48;100089.34;;;3.03;44.67
63285;BME280;49409;55.708;37.522;2023-02-15T13:02:16;100090.31;;;3.10;44.42
63285;BME280;49409;55.708;37.522;2023-02-15T13:04:48;100095.72;;;2.94;44.53
63285;BME280;49409;55.708;37.522;2023-02-15T13:07:14;100101.63;;;2.96;44.68
63285;BME280;49409;55.708;37.522;2023-02-15T13:09:43;100100.81;;;2.68;45.56
63285;BME280;49409;55.708;37.522;2023-02-15T13:14:43;100105.56;;;2.71;45.83
63285;BME280;49409;55.708;37.522;2023-02-15T13:17:09;100100.56;;;3.01;45.60
63285;BME280;49409;55.708;37.522;2023-02-15T13:19:39;100108.06;;;3.20;44.81
63285;BME280;49409;55.708;37.522;2023-02-15T13:22:07;100116.25;;;3.36;44.88
63285;BME280;49409;55.708;37.522;2023-02-15T13:25:09;100107.91;;;3.45;44.20
63285;BME280;49409;55.708;37.522;2023-02-15T13:27:30;100108.16;;;3.40;43.72
63285;BME280;49409;55.708;37.522;2023-02-15T13:29:58;100127.09;;;3.20;43.61
63285;BME280;49409;55.708;37.522;2023-02-15T13:32:35;100130.31;;;3.10;43.46
63285;BME280;49409;55.708;37.522;2023-02-15T13:35:03;100131.06;;;2.94;44.35
63285;BME280;49409;55.708;37.522;2023-02-15T13:40:15;100121.53;;;3.01;44.04
63285;BME280;49409;55.708;37.522;2023-02-15T13:45:30;100135.69;;;3.22;43.77
63285;BME280;49409;55.708;37.522;2023-02-15T13:55:55;100137.97;;;3.20;43.54
63285;BME280;49409;55.708;37.522;2023-02-15T13:58:36;100138.91;;;3.12;43.76
63285;BME280;49409;55.708;37.522;2023-02-15T14:01:13;100143.22;;;3.13;43.62
63285;BME280;49409;55.708;37.522;2023-02-15T14:16:39;100159.81;;;2.95;43.75
63285;BME280;49409;55.708;37.522;2023-02-15T14:19:16;100168.97;;;3.03;44.26
63285;BME280;49409;55.708;37.522;2023-02-15T14:21:49;100168.38;;;3.10;43.42
63285;BME280;49409;55.708;37.522;2023-02-15T14:32:11;100158.59;;;2.52;44.04
63285;BME280;49409;55.708;37.522;2023-02-15T14:37:09;100176.81;;;2.52;45.15
63285;BME280;49409;55.708;37.522;2023-02-15T14:45:05;100181.91;;;2.53;44.83
63285;BME280;49409;55.708;37.522;2023-02-15T14:47:39;100178.50;;;2.56;44.35
63285;BME280;49409;55.708;37.522;2023-02-15T14:53:14;100192.78;;;2.53;44.12
63285;BME280;49409;55.708;37.522;2023-02-15T14:55:40;100198.09;;;2.50;43.81
63285;BME280;49409;55.708;37.522;2023-02-15T14:58:09;100197.06;;;2.54;44.60
63285;BME280;49409;55.708;37.522;2023-02-15T15:00:37;100198.41;;;2.61;44.30
63285;BME280;49409;55.708;37.522;2023-02-15T15:03:09;100206.44;;;2.69;44.50
63285;BME280;49409;55.708;37.522;2023-02-15T15:05:35;100205.97;;;2.80;44.23
63285;BME280;49409;55.708;37.522;2023-02-15T15:08:21;100195.69;;;2.73;43.71
63285;BME280;49409;55.708;37.522;2023-02-15T15:10:47;100200.13;;;2.65;44.61
63285;BME280;49409;55.708;37.522;2023-02-15T15:15:57;100206.56;;;2.73;44.50
63285;BME280;49409;55.708;37.522;2023-02-15T15:18:48;100204.03;;;2.92;43.93
63285;BME280;49409;55.708;37.522;2023-02-15T15:23:57;100211.91;;;2.97;44.12
63285;BME280;49409;55.708;37.522;2023-02-15T15:26:24;100229.31;;;2.81;43.42
63285;BME280;49409;55.708;37.522;2023-02-15T15:31:36;100222.88;;;2.73;44.48
63285;BME280;49409;55.708;37.522;2023-02-15T15:41:57;100247.56;;;2.55;44.17
63285;BME280;49409;55.708;37.522;2023-02-15T15:47:16;100249.03;;;2.41;44.85
63285;BME280;49409;55.708;37.522;2023-02-15T15:49:47;100247.09;;;2.16;44.73
63285;BME280;49409;55.708;37.522;2023-02-15T15:52:15;100238.28;;;2.44;45.19
63285;BME280;49409;55.708;37.522;2023-02-15T15:54:42;100254.81;;;2.14;45.46
63285;BME280;49409;55.708;37.522;2023-02-15T15:59:48;100243.81;;;2.23;45.07
63285;BME280;49409;55.708;37.522;2023-02-15T16:02:15;100252.31;;;2.34;44.90
63285;BME280;49409;55.708;37.522;2023-02-15T16:04:41;100255.03;;;2.34;44.51
63285;BME280;49409;55.708;37.522;2023-02-15T16:09:41;100255.81;;;2.34;44.66
63285;BME280;49409;55.708;37.522;2023-02-15T16:12:18;100257.41;;;2.23;44.95